createdAt,value
2023-02-20T00:00:42.651Z,3.40
2023-02-20T00:03:10.809Z,3.50
2023-02-20T00:05:38.098Z,2.33
2023-02-20T00:08:05.526Z,4.07
2023-02-20T00:10:32.761Z,2.67
2023-02-20T00:13:00.236Z,2.65
2023-02-20T00:15:27.477Z,2.80
2023-02-20T00:17:54.790Z,2.45
2023-02-20T00:20:24.236Z,2.72
2023-02-20T00:22:52.222Z,2.50
2023-02-20T00:25:21.051Z,3.20
2023-02-20T00:27:48.686Z,2.75
2023-02-20T00:30:26.386Z,2.65
2023-02-20T00:32:55.118Z,2.63
2023-02-20T00:35:23.518Z,2.40
2023-02-20T00:37:51.389Z,3.03
2023-02-20T00:40:20.128Z,2.70
2023-02-20T00:42:47.680Z,3.53
2023-02-20T00:45:16.237Z,3.42
2023-02-20T00:47:44.107Z,2.30
2023-02-20T00:50:15.190Z,3.15
2023-02-20T00:52:42.400Z,2.95
2023-02-20T00:55:11.828Z,2.70
2023-02-20T00:57:39.028Z,2.47
2023-02-20T01:00:10.559Z,3.20
2023-02-20T01:02:39.079Z,3.30
2023-02-20T01:05:06.525Z,2.65
2023-02-20T01:07:33.771Z,2.80
2023-02-20T01:10:00.889Z,2.60
2023-02-20T01:12:28.322Z,2.80
2023-02-20T01:14:55.645Z,3.42
2023-02-20T01:17:23.050Z,3.50
2023-02-20T01:19:50.178Z,2.60
2023-02-20T01:22:20.590Z,2.05
2023-02-20T01:24:49.887Z,2.08
2023-02-20T01:27:17.459Z,3.35
2023-02-20T01:29:44.586Z,3.17
2023-02-20T01:32:12.979Z,3.28
2023-02-20T01:34:40.455Z,2.55
2023-02-20T01:37:07.755Z,2.53
2023-02-20T01:39:35.854Z,2.55
2023-02-20T01:42:07.044Z,3.00
2023-02-20T01:44:37.130Z,2.08
2023-02-20T01:47:08.891Z,1.60
2023-02-20T01:49:44.668Z,2.60
2023-02-20T01:52:28.678Z,1.92
2023-02-20T01:55:01.470Z,2.17
2023-02-20T01:57:33.172Z,2.42
2023-02-20T02:00:21.619Z,2.42
2023-02-20T02:02:57.365Z,2.03
2023-02-20T02:05:25.344Z,2.70
2023-02-20T02:07:55.616Z,2.17
2023-02-20T02:10:32.531Z,2.97
2023-02-20T02:12:59.858Z,2.33
2023-02-20T02:15:27.118Z,2.53
2023-02-20T02:18:17.504Z,2.72
2023-02-20T02:21:09.742Z,2.35
2023-02-20T02:24:07.455Z,1.90
2023-02-20T02:27:02.748Z,2.53
2023-02-20T02:29:48.654Z,1.75
2023-02-20T02:32:53.363Z,1.95
2023-02-20T02:35:46.765Z,2.00
2023-02-20T02:38:22.673Z,2.08
2023-02-20T02:41:28.214Z,2.55
2023-02-20T02:44:19.505Z,2.03
2023-02-20T02:47:12.801Z,2.08
2023-02-20T02:49:54.787Z,2.42
2023-02-20T02:52:38.786Z,2.13
2023-02-20T02:55:10.218Z,2.30
2023-02-20T02:57:37.498Z,2.17
2023-02-20T03:00:10.996Z,2.00
2023-02-20T03:02:54.710Z,1.90
2023-02-20T03:05:27.146Z,2.08
2023-02-20T03:07:58.316Z,2.47
2023-02-20T03:10:31.883Z,1.60
2023-02-20T03:13:05.388Z,2.25
2023-02-20T03:15:39.363Z,1.88
2023-02-20T03:18:28.187Z,2.08
2023-02-20T03:20:59.181Z,1.75
2023-02-20T03:23:33.420Z,2.00
2023-02-20T03:26:05.448Z,2.08
2023-02-20T03:28:41.033Z,2.20
2023-02-20T03:31:17.770Z,2.30
2023-02-20T03:34:27.235Z,1.95
2023-02-20T03:37:19.433Z,2.65
2023-02-20T03:40:09.762Z,2.35
2023-02-20T03:43:00.887Z,1.83
2023-02-20T03:45:36.246Z,1.92
2023-02-20T03:48:12.291Z,2.00
2023-02-20T03:50:58.254Z,2.13
2023-02-20T03:53:29.253Z,2.30
2023-02-20T03:56:01.171Z,1.70
2023-02-20T03:58:30.983Z,1.87
2023-02-20T04:01:01.774Z,2.05
2023-02-20T04:03:32.586Z,1.55
2023-02-20T04:06:00.847Z,2.17
2023-02-20T04:08:46.753Z,1.58
2023-02-20T04:11:32.456Z,1.92
2023-02-20T04:14:01.566Z,1.70
2023-02-20T04:16:32.778Z,1.80
2023-02-20T04:18:59.936Z,1.58
2023-02-20T04:21:35.546Z,1.80
2023-02-20T04:24:07.961Z,1.55
2023-02-20T04:29:05.371Z,1.50
2023-02-20T04:31:34.005Z,1.83
2023-02-20T04:34:01.185Z,2.22
2023-02-20T04:36:28.529Z,1.77
2023-02-20T04:38:58.448Z,1.60
2023-02-20T04:41:29.769Z,2.20
2023-02-20T04:44:16.950Z,2.67
2023-02-20T04:46:46.368Z,2.25
2023-02-20T04:49:14.710Z,2.15
2023-02-20T04:51:44.885Z,2.00
2023-02-20T04:54:12.377Z,1.65
2023-02-20T04:56:39.911Z,2.03
2023-02-20T04:59:07.591Z,1.60
2023-02-20T05:01:34.956Z,2.20
2023-02-20T05:04:02.109Z,2.00
2023-02-20T05:06:29.394Z,1.73
2023-02-20T05:08:56.968Z,2.10
2023-02-20T05:11:24.067Z,2.53
2023-02-20T05:13:51.242Z,3.15
2023-02-20T05:16:18.376Z,2.20
2023-02-20T05:18:45.853Z,2.60
2023-02-20T05:21:34.446Z,2.20
2023-02-20T05:24:01.918Z,2.08
2023-02-20T05:26:30.077Z,2.22
2023-02-20T05:28:57.161Z,2.28
2023-02-20T05:31:24.463Z,2.50
2023-02-20T05:33:51.557Z,2.53
2023-02-20T05:36:18.706Z,2.58
2023-02-20T05:38:49.110Z,2.50
2023-02-20T05:41:16.632Z,3.35
2023-02-20T05:43:43.865Z,2.63
2023-02-20T05:46:11.359Z,2.63
2023-02-20T05:48:38.700Z,2.78
2023-02-20T05:51:06.115Z,2.53
2023-02-20T05:53:33.437Z,2.22
2023-02-20T05:56:00.531Z,2.70
2023-02-20T05:58:27.734Z,2.30
2023-02-20T06:00:54.856Z,2.88
2023-02-20T06:03:21.936Z,2.03
2023-02-20T06:05:49.167Z,2.38
2023-02-20T06:08:16.318Z,1.88
2023-02-20T06:10:43.384Z,2.40
2023-02-20T06:13:10.569Z,2.10
2023-02-20T06:15:37.735Z,2.30
2023-02-20T06:18:05.052Z,2.85
2023-02-20T06:20:32.175Z,2.15
2023-02-20T06:22:59.388Z,2.20
2023-02-20T06:25:26.615Z,3.17
2023-02-20T06:27:53.806Z,2.30
2023-02-20T06:30:21.225Z,2.63
2023-02-20T06:32:48.355Z,1.95
2023-02-20T06:35:15.941Z,2.05
2023-02-20T06:37:43.125Z,2.55
2023-02-20T06:40:10.898Z,2.40
2023-02-20T06:42:38.046Z,2.45
2023-02-20T06:45:05.725Z,2.17
2023-02-20T06:47:33.041Z,2.80
2023-02-20T06:50:00.250Z,2.20
2023-02-20T06:52:27.394Z,3.85
2023-02-20T06:54:54.604Z,2.55
2023-02-20T06:57:21.884Z,2.35
2023-02-20T06:59:49.844Z,2.30
2023-02-20T07:02:18.305Z,2.45
2023-02-20T07:04:50.385Z,2.33
2023-02-20T07:07:17.578Z,2.33
2023-02-20T07:09:44.863Z,2.63
2023-02-20T07:12:12.737Z,2.72
2023-02-20T07:14:39.986Z,2.75
2023-02-20T07:17:07.131Z,2.80
2023-02-20T07:19:34.300Z,2.63
2023-02-20T07:22:01.652Z,2.40
2023-02-20T07:24:28.950Z,2.92
2023-02-20T07:29:22.223Z,3.10
2023-02-20T07:31:49.549Z,2.83
2023-02-20T07:34:16.717Z,2.85
2023-02-20T07:36:43.976Z,2.70
2023-02-20T07:39:13.167Z,2.92
2023-02-20T07:41:41.129Z,2.40
2023-02-20T07:44:28.247Z,2.50
2023-02-20T07:46:55.429Z,2.58
2023-02-20T07:49:22.648Z,2.85
2023-02-20T07:51:49.844Z,2.47
2023-02-20T07:54:17.185Z,2.00
2023-02-20T07:56:44.482Z,2.20
2023-02-20T07:59:11.740Z,2.20
2023-02-20T08:01:39.129Z,2.50
2023-02-20T08:04:06.289Z,1.73
2023-02-20T08:06:33.639Z,1.70
2023-02-20T08:09:01.515Z,2.05
2023-02-20T08:11:28.904Z,2.05
2023-02-20T08:13:56.075Z,1.73
2023-02-20T08:16:23.292Z,1.60
2023-02-20T08:18:50.490Z,2.10
2023-02-20T08:21:17.944Z,1.50
2023-02-20T08:23:45.166Z,1.23
2023-02-20T08:26:12.744Z,1.70
2023-02-20T08:28:40.381Z,1.40
2023-02-20T08:31:08.341Z,1.50
2023-02-20T08:33:35.528Z,1.60
2023-02-20T08:36:02.814Z,1.40
2023-02-20T08:38:31.320Z,1.40
2023-02-20T08:40:58.984Z,1.02
2023-02-20T08:43:28.040Z,1.30
2023-02-20T08:45:56.370Z,1.05
2023-02-20T08:48:23.747Z,1.45
2023-02-20T08:50:50.889Z,1.90
2023-02-20T08:53:18.012Z,1.35
2023-02-20T08:55:45.849Z,1.30
2023-02-20T08:58:13.488Z,1.50
2023-02-20T09:00:40.649Z,1.33
2023-02-20T09:03:08.768Z,1.55
2023-02-20T09:05:38.877Z,1.27
2023-02-20T09:08:06.745Z,1.33
2023-02-20T09:10:34.062Z,1.75
2023-02-20T09:13:01.830Z,1.65
2023-02-20T09:15:29.246Z,1.33
2023-02-20T09:17:56.529Z,1.25
2023-02-20T09:20:23.852Z,1.58
2023-02-20T09:22:51.262Z,1.45
2023-02-20T09:25:19.303Z,1.38
2023-02-20T09:27:46.555Z,1.05
2023-02-20T09:30:21.069Z,1.75
2023-02-20T09:32:50.462Z,1.20
2023-02-20T09:35:27.357Z,1.00
2023-02-20T09:37:55.087Z,1.35
2023-02-20T09:40:29.396Z,1.23
2023-02-20T09:42:56.538Z,0.95
2023-02-20T09:45:27.458Z,1.45
2023-02-20T09:48:25.000Z,1.15
2023-02-20T09:50:57.490Z,1.08
2023-02-20T09:53:33.403Z,1.00
2023-02-20T09:56:03.469Z,1.75
2023-02-20T09:59:00.385Z,0.93
2023-02-20T10:01:29.345Z,0.98
2023-02-20T10:04:04.923Z,1.25
2023-02-20T10:06:35.172Z,1.20
2023-02-20T10:09:04.818Z,0.90
2023-02-20T10:12:00.748Z,1.08
2023-02-20T10:14:48.500Z,0.90
2023-02-20T10:17:38.177Z,1.38
2023-02-20T10:20:35.751Z,2.20
2023-02-20T10:23:21.494Z,1.02
2023-02-20T10:25:56.584Z,1.23
2023-02-20T10:28:24.313Z,1.10
2023-02-20T10:31:16.202Z,1.08
2023-02-20T10:33:52.491Z,1.60
2023-02-20T10:36:23.250Z,1.05
2023-02-20T10:39:02.173Z,0.90
2023-02-20T10:41:54.681Z,1.08
2023-02-20T10:44:35.495Z,1.13
2023-02-20T10:47:12.455Z,1.30
2023-02-20T10:50:05.756Z,1.15
2023-02-20T10:52:51.009Z,0.95
2023-02-20T10:55:30.928Z,1.00
2023-02-20T10:58:08.938Z,1.00
2023-02-20T11:00:42.840Z,1.10
2023-02-20T11:03:21.692Z,0.73
2023-02-20T11:05:54.712Z,0.80
2023-02-20T11:08:22.021Z,0.60
2023-02-20T11:10:53.124Z,1.00
2023-02-20T11:13:23.757Z,0.98
2023-02-20T11:15:56.871Z,0.93
2023-02-20T11:18:35.223Z,0.80
2023-02-20T11:21:02.667Z,0.70
2023-02-20T11:23:42.602Z,0.90
2023-02-20T11:26:22.253Z,0.68
2023-02-20T11:29:27.367Z,0.90
2023-02-20T11:31:54.719Z,0.63
2023-02-20T11:34:25.843Z,1.10
2023-02-20T11:36:56.432Z,0.95
2023-02-20T11:39:30.023Z,0.90
2023-02-20T11:42:17.585Z,0.98
2023-02-20T11:44:44.999Z,1.00
2023-02-20T11:47:25.474Z,0.68
2023-02-20T11:50:18.661Z,0.80
2023-02-20T11:53:05.465Z,0.60
2023-02-20T11:55:33.699Z,0.75
2023-02-20T11:58:02.780Z,0.82
2023-02-20T12:00:45.703Z,1.00
2023-02-20T12:03:15.236Z,1.00
2023-02-20T12:05:48.114Z,0.80
2023-02-20T12:08:42.717Z,1.52
2023-02-20T12:11:19.859Z,1.20
2023-02-20T12:13:50.564Z,1.00
2023-02-20T12:16:55.216Z,0.88
2023-02-20T12:19:39.468Z,0.70
2023-02-20T12:22:28.238Z,1.13
2023-02-20T12:24:58.254Z,1.10
2023-02-20T12:27:25.412Z,1.30
2023-02-20T12:30:07.783Z,1.02
2023-02-20T12:32:43.956Z,0.93
2023-02-20T12:35:59.303Z,1.48
2023-02-20T12:39:04.912Z,0.70
2023-02-20T12:41:32.819Z,1.20
2023-02-20T12:44:13.954Z,1.25
2023-02-20T12:47:13.356Z,0.70
2023-02-20T12:49:55.321Z,1.20
2023-02-20T12:52:57.346Z,0.93
2023-02-20T12:55:40.225Z,1.30
2023-02-20T12:58:37.489Z,1.25
2023-02-20T13:01:11.715Z,1.33
2023-02-20T13:03:57.889Z,1.60
2023-02-20T13:06:34.149Z,0.98
2023-02-20T13:09:25.966Z,0.77
2023-02-20T13:11:58.922Z,1.37
2023-02-20T13:14:38.370Z,0.82
2023-02-20T13:17:33.415Z,1.00
2023-02-20T13:20:22.030Z,1.20
2023-02-20T13:23:03.680Z,1.00
2023-02-20T13:25:33.913Z,1.13
2023-02-20T13:28:13.357Z,1.40
2023-02-20T13:30:41.589Z,1.42
2023-02-20T13:33:29.331Z,1.42
2023-02-20T13:35:57.797Z,1.05
2023-02-20T13:38:28.014Z,1.00
2023-02-20T13:40:58.989Z,0.90
2023-02-20T13:43:31.134Z,1.00
2023-02-20T13:46:01.391Z,1.10
2023-02-20T13:48:29.101Z,1.40
2023-02-20T13:51:15.154Z,1.33
2023-02-20T13:54:03.305Z,1.40
2023-02-20T13:56:45.349Z,1.50
2023-02-20T13:59:19.856Z,0.98
2023-02-20T14:02:24.211Z,1.35
2023-02-20T14:04:57.745Z,1.17
2023-02-20T14:07:40.755Z,1.10
2023-02-20T14:10:33.202Z,1.25
2023-02-20T14:13:09.103Z,1.50
2023-02-20T14:15:54.023Z,1.17
2023-02-20T14:18:32.061Z,1.13
2023-02-20T14:21:10.551Z,1.70
2023-02-20T14:23:38.774Z,1.08
2023-02-20T14:26:18.613Z,0.95
2023-02-20T14:28:48.434Z,1.42
2023-02-20T14:31:37.683Z,1.45
2023-02-20T14:34:17.907Z,1.60
2023-02-20T14:36:51.056Z,1.40
2023-02-20T14:39:36.953Z,1.55
2023-02-20T14:42:06.707Z,1.67
2023-02-20T14:44:34.590Z,1.60
2023-02-20T14:47:14.363Z,1.58
2023-02-20T14:49:42.277Z,1.42
2023-02-20T14:52:17.031Z,1.48
2023-02-20T14:54:56.806Z,1.77
2023-02-20T14:57:24.199Z,1.13
2023-02-20T14:59:51.394Z,1.75
2023-02-20T15:02:34.142Z,1.65
2023-02-20T15:05:12.701Z,1.50
2023-02-20T15:07:40.728Z,2.03
2023-02-20T15:10:39.700Z,2.08
2023-02-20T15:13:13.150Z,1.50
2023-02-20T15:15:45.124Z,1.55
2023-02-20T15:18:17.822Z,1.60
2023-02-20T15:20:50.494Z,2.10
2023-02-20T15:23:18.773Z,1.75
2023-02-20T15:25:46.091Z,1.50
2023-02-20T15:28:32.134Z,1.60
2023-02-20T15:31:22.023Z,1.85
2023-02-20T15:33:53.968Z,1.58
2023-02-20T15:36:24.938Z,1.83
2023-02-20T15:38:55.393Z,1.42
2023-02-20T15:41:24.041Z,1.20
2023-02-20T15:43:51.971Z,1.80
2023-02-20T15:46:20.383Z,1.33
2023-02-20T15:48:48.257Z,1.80
2023-02-20T15:51:21.095Z,1.73
2023-02-20T15:53:49.067Z,1.88
2023-02-20T15:56:17.362Z,1.70
2023-02-20T15:58:46.964Z,1.80
2023-02-20T16:01:14.118Z,1.58
2023-02-20T16:03:51.511Z,2.17
2023-02-20T16:06:23.428Z,2.03
2023-02-20T16:08:51.932Z,1.67
2023-02-20T16:11:23.261Z,1.98
2023-02-20T16:13:58.166Z,1.70
2023-02-20T16:16:28.774Z,1.45
2023-02-20T16:18:56.415Z,1.30
2023-02-20T16:21:25.137Z,1.90
2023-02-20T16:23:53.736Z,1.77
2023-02-20T16:26:24.229Z,1.70
2023-02-20T16:28:59.405Z,1.70
2023-02-20T16:32:00.898Z,1.48
2023-02-20T16:34:33.656Z,1.52
2023-02-20T16:37:02.670Z,1.50
2023-02-20T16:39:30.133Z,1.15
2023-02-20T16:41:59.254Z,1.45
2023-02-20T16:44:29.648Z,1.55
2023-02-20T16:46:57.073Z,1.35
2023-02-20T16:49:24.718Z,1.50
2023-02-20T16:51:59.462Z,1.10
2023-02-20T16:54:27.784Z,1.40
2023-02-20T16:56:55.108Z,1.85
2023-02-20T16:59:22.821Z,7.22
2023-02-20T17:01:51.866Z,9.00
2023-02-20T17:04:19.902Z,39.38
2023-02-20T17:06:47.431Z,8.90
2023-02-20T17:09:14.596Z,2.97
2023-02-20T17:11:41.897Z,2.63
2023-02-20T17:14:09.511Z,2.33
2023-02-20T17:16:36.893Z,1.85
2023-02-20T17:19:04.142Z,2.10
2023-02-20T17:21:31.862Z,1.98
2023-02-20T17:23:59.185Z,1.60
2023-02-20T17:26:27.132Z,2.17
2023-02-20T17:28:54.620Z,1.50
2023-02-20T17:31:22.965Z,2.10
2023-02-20T17:33:50.725Z,2.17
2023-02-20T17:36:17.966Z,1.58
2023-02-20T17:38:45.586Z,1.90
2023-02-20T17:41:13.324Z,3.00
2023-02-20T17:43:40.788Z,2.88
2023-02-20T17:46:08.046Z,2.90
2023-02-20T17:48:35.312Z,6.82
2023-02-20T17:51:02.503Z,7.97
2023-02-20T17:53:29.721Z,7.78
2023-02-20T17:55:56.984Z,8.55
2023-02-20T17:58:24.167Z,15.63
2023-02-20T18:00:51.483Z,5.57
2023-02-20T18:03:18.717Z,4.45
2023-02-20T18:05:45.940Z,3.33
2023-02-20T18:08:13.267Z,2.75
2023-02-20T18:10:40.606Z,3.42
2023-02-20T18:13:08.003Z,2.90
2023-02-20T18:15:37.037Z,3.00
2023-02-20T18:18:05.124Z,2.72
2023-02-20T18:20:32.479Z,2.38
2023-02-20T18:23:00.351Z,2.22
2023-02-20T18:25:39.641Z,3.33
2023-02-20T18:28:08.593Z,2.10
2023-02-20T18:30:35.939Z,2.05
2023-02-20T18:33:03.354Z,1.98
2023-02-20T18:35:30.699Z,2.05
2023-02-20T18:37:58.839Z,2.00
2023-02-20T18:40:26.071Z,1.80
2023-02-20T18:42:53.314Z,1.70
2023-02-20T18:45:23.232Z,2.03
2023-02-20T18:47:51.578Z,1.70
2023-02-20T18:50:19.740Z,1.50
2023-02-20T18:52:48.265Z,1.58
2023-02-20T18:55:20.333Z,1.48
2023-02-20T19:00:24.754Z,1.95
2023-02-20T19:02:56.302Z,1.75
2023-02-20T19:05:25.420Z,2.35
2023-02-20T19:07:53.088Z,2.10
2023-02-20T19:10:25.560Z,1.70
2023-02-20T19:12:54.588Z,1.52
2023-02-20T19:15:25.616Z,1.50
2023-02-20T19:17:53.496Z,1.90
2023-02-20T19:20:33.143Z,2.33
2023-02-20T19:23:02.331Z,1.88
2023-02-20T19:25:29.655Z,1.63
2023-02-20T19:27:56.880Z,1.92
2023-02-20T19:30:24.063Z,1.92
2023-02-20T19:32:51.229Z,1.83
2023-02-20T19:35:18.575Z,2.40
2023-02-20T19:37:45.768Z,2.20
2023-02-20T19:40:12.991Z,1.88
2023-02-20T19:42:41.129Z,2.90
2023-02-20T19:45:08.763Z,4.80
2023-02-20T19:47:36.212Z,4.47
2023-02-20T19:50:04.902Z,5.07
2023-02-20T19:52:32.510Z,6.15
2023-02-20T19:54:59.782Z,7.90
2023-02-20T19:57:26.946Z,6.60
2023-02-20T19:59:54.198Z,7.63
2023-02-20T20:02:25.248Z,7.82
2023-02-20T20:04:52.857Z,6.60
2023-02-20T20:07:20.106Z,6.90
2023-02-20T20:09:47.411Z,8.93
2023-02-20T20:12:33.266Z,8.50
2023-02-20T20:15:00.655Z,8.95
2023-02-20T20:17:27.832Z,10.18
2023-02-20T20:19:59.416Z,8.75
2023-02-20T20:24:55.657Z,8.13
2023-02-20T20:27:23.756Z,9.48
2023-02-20T20:29:51.668Z,9.00
2023-02-20T20:32:22.050Z,9.40
2023-02-20T20:34:53.202Z,7.82
2023-02-20T20:37:25.389Z,7.70
2023-02-20T20:39:54.762Z,8.10
2023-02-20T20:42:26.233Z,10.02
2023-02-20T20:44:56.742Z,12.80
2023-02-20T20:47:26.625Z,24.42
2023-02-20T20:49:54.189Z,22.92
2023-02-20T20:52:24.842Z,14.82
2023-02-20T20:54:53.799Z,12.90
2023-02-20T20:57:23.595Z,13.63
2023-02-20T20:59:51.805Z,10.95
2023-02-20T21:02:20.038Z,13.48
2023-02-20T21:04:52.876Z,16.02
2023-02-20T21:07:22.869Z,13.82
2023-02-20T21:09:49.998Z,12.85
2023-02-20T21:12:17.376Z,12.48
2023-02-20T21:14:44.986Z,13.25
2023-02-20T21:17:13.381Z,18.13
2023-02-20T21:19:41.505Z,21.90
2023-02-20T21:22:08.986Z,23.65
2023-02-20T21:24:37.468Z,23.23
2023-02-20T21:27:05.730Z,45.30
2023-02-20T21:29:34.868Z,23.85
2023-02-20T21:32:02.316Z,44.60
2023-02-20T21:34:29.737Z,32.47
2023-02-20T21:36:57.078Z,20.60
2023-02-20T21:39:24.486Z,16.63
2023-02-20T21:42:11.158Z,13.25
2023-02-20T21:44:42.844Z,12.90
2023-02-20T21:47:11.244Z,9.98
2023-02-20T21:49:44.845Z,9.43
2023-02-20T21:52:12.443Z,8.93
2023-02-20T21:54:41.239Z,12.73
2023-02-20T21:57:08.449Z,12.50
2023-02-20T21:59:35.589Z,17.58
2023-02-20T22:02:03.392Z,12.48
2023-02-20T22:04:30.649Z,14.65
2023-02-20T22:07:16.604Z,27.85
2023-02-20T22:10:02.759Z,23.52
2023-02-20T22:12:48.311Z,19.85
2023-02-20T22:15:33.954Z,15.65
2023-02-20T22:18:19.569Z,20.58
2023-02-20T22:21:05.208Z,15.02
2023-02-20T22:23:50.820Z,29.25
2023-02-20T22:26:36.893Z,12.75
2023-02-20T22:29:23.185Z,9.88
2023-02-20T22:32:08.940Z,10.77
2023-02-20T22:35:09.275Z,13.90
2023-02-20T22:37:57.329Z,18.02
2023-02-20T22:40:42.821Z,17.20
2023-02-20T22:43:28.878Z,15.55
2023-02-20T22:46:14.716Z,16.58
2023-02-20T22:49:00.678Z,21.55
2023-02-20T22:51:46.463Z,12.10
2023-02-20T22:54:32.413Z,9.85
2023-02-20T22:57:18.668Z,8.00
2023-02-20T23:00:04.662Z,7.85
2023-02-20T23:02:51.159Z,7.05
2023-02-20T23:05:37.197Z,8.55
2023-02-20T23:08:23.567Z,10.38
2023-02-20T23:11:09.556Z,7.72
2023-02-20T23:13:55.266Z,8.07
2023-02-20T23:16:43.022Z,8.07
2023-02-20T23:19:29.829Z,8.63
2023-02-20T23:22:15.553Z,7.93
2023-02-20T23:25:01.273Z,7.88
2023-02-20T23:27:47.265Z,8.18
2023-02-20T23:30:33.205Z,7.95
2023-02-20T23:33:18.904Z,9.07
2023-02-20T23:36:04.834Z,8.30
2023-02-20T23:38:50.993Z,9.45
2023-02-20T23:41:36.516Z,9.27
2023-02-20T23:44:26.160Z,8.60
2023-02-20T23:47:12.303Z,8.63
2023-02-20T23:49:57.874Z,9.13
2023-02-20T23:52:43.889Z,8.25
2023-02-20T23:55:29.861Z,8.60
2023-02-20T23:58:15.340Z,9.10
